Details From WMSA - Kuala Lumpur S Abdul Aziz Shah
To WMBT - Pulau Tioman
Flight Number -
Tags generated
Created
Modified
Stats Distance 158 nm / 292 km
Max Altitude 19,000 ft / 5,791 m
Waypoints 3
Social Downloads 0
Likes 0
Share

Download

Looking for another format? Having issues loading an existing format? Contact us
Advertisement - Login to hide

Notes

Basic altitude profile: - Ascent Rate: 2500ft/min - Ascent Speed: 150kts - Cruise Altitude: 800ft - Cruise Speed: 180kts - Descent Rate: 1500ft/min - Descent Speed: 180kts Options: - Use NATs: yes - Use PACOTS: yes - Use low airways: yes - Use high airways: yes

Route

WMSA ISTAN WMBT

ID Type Via Altitude (ft/m) Position (lat/lon) Dist (leg/tot) Name
O WMSA APT - 0 / 0 3.13058 / 101.54933 - / 0 nm Kuala Lumpur S Abdul Aziz Shah
ISTAN FIX - 19,000 / 5,791 3.01444 / 102.47944 56 / 56 nm
O WMBT APT - 0 / 0 2.81818 / 104.16002 101 / 157 nm Pulau Tioman

Altitude Profile

Advertisement - Login to hide

WMSA

Details ICAO WMSA (SZB)
Name Subang
Region Malaysia (Peninsular Malaysia)
Timezone Asia/Kuala_Lumpur (UTC+8.0)
Stats Elevation 89 ft / 27 m (AMSL)
Location 3.130620° 101.549000°
Runways 1
Magnetic Variation 0.033° E

METAR

WMSA 171300Z 00000KT 9999 FEW026 29/26 Q1009

Decode

TAF

TAF WMSA 171100Z 1712/1812 VRB03KT 9999 FEW010 TEMPO 1807/1812 4000 TSRA FEW010 FEW016CB

Decode

Departure Runways

ID Width Length Bearing (true/mag) Surface Threshold Overrun Markings Lighting
15 148 ft / 45 m 12,454 ft / 3,796 m 149.66° / 149.63° ASPHALT 0 ft / 0 m 200 ft / 61 m PREC-APP EDGE THRESHOLD CALVERT
33 148 ft / 45 m 12,454 ft / 3,796 m 329.66° / 329.63° ASPHALT 0 ft / 0 m 200 ft / 61 m PREC-APP EDGE THRESHOLD CALVERT

WMBT

Details ICAO WMBT (TOD)
Name Pulau Tioman
Region Malaysia (Peninsular Malaysia)
Timezone Asia/Kuala_Lumpur (UTC+8.0)
Stats Elevation 15 ft / 5 m (AMSL)
Location 2.818220° 104.160000°
Runways 1
Magnetic Variation 0.117° E

METAR

Not found

TAF

TAF WMBT 171100Z 1712/1812 VRB02KT 9999 FEW025

Decode

Destination Runways

ID Width Length Bearing (true/mag) Surface Threshold Overrun Markings Lighting
02 100 ft / 30 m 3,270 ft / 997 m 26.24° / 26.12° ASPHALT 0 ft / 0 m 0 ft / 0 m APP
20 100 ft / 30 m 3,270 ft / 997 m 206.24° / 206.12° ASPHALT 0 ft / 0 m 0 ft / 0 m APP

Popular Alternatives